Time;durP1;ratioP1;P1;durP2;ratioP2;P2;SDS_P1;SDS_P2;PMS_P1;PMS_P2;Temp;Humidity;BMP_temperature;BMP_pressure;BME280_temperature;BME280_humidity;BME280_pressure;Samples;Min_cycle;Max_cycle;Signal;HPM_P1;HPM_P2
2021/08/19 00:01:13;;;;;;;11.93;10.73;;;;;;;15.53;84.92;100824.31;5913961;29;20520;-50
2021/08/19 00:04:34;;;;;;;11.70;10.40;;;;;;;15.58;84.30;100810.22;5910428;29;20242;-52
2021/08/19 00:07:55;;;;;;;9.97;9.13;;;;;;;15.55;83.51;100819.91;5914273;29;20333;-50
2021/08/19 00:11:16;;;;;;;9.70;8.77;;;;;;;15.89;82.49;100823.28;5913457;29;20230;-48
2021/08/19 00:14:39;;;;;;;9.47;8.57;;;;;;;15.93;81.57;100823.13;5912646;29;20301;-51
2021/08/19 00:18:00;;;;;;;9.97;9.07;;;;;;;15.85;82.37;100819.91;5910214;29;20258;-51
2021/08/19 00:21:21;;;;;;;10.83;9.83;;;;;;;15.62;83.07;100822.31;5912708;29;20540;-51
2021/08/19 00:24:42;;;;;;;10.20;9.07;;;;;;;15.92;82.27;100831.94;5912393;29;20234;-48
2021/08/19 00:28:03;;;;;;;11.50;10.40;;;;;;;16.08;81.37;100834.09;5910333;29;20246;-54
2021/08/19 00:31:26;;;;;;;10.03;9.23;;;;;;;15.92;81.63;100823.22;5914805;29;20633;-55
2021/08/19 00:34:47;;;;;;;10.70;9.80;;;;;;;15.74;81.85;100817.63;5913098;29;20291;-53
2021/08/19 00:38:08;;;;;;;10.40;9.17;;;;;;;15.56;82.33;100823.38;5910515;29;20329;-54
2021/08/19 00:41:29;;;;;;;9.47;8.53;;;;;;;15.77;81.75;100816.66;5913116;29;20254;-51
2021/08/19 00:44:50;;;;;;;10.33;9.33;;;;;;;15.86;81.15;100811.13;5911203;29;20329;-54
2021/08/19 00:48:12;;;;;;;9.57;8.53;;;;;;;15.63;81.59;100818.81;5910304;29;20598;-54
2021/08/19 00:51:39;;;;;;;9.73;8.73;;;;;;;15.61;82.26;100810.13;5916328;29;20266;-50
2021/08/19 00:55:00;;;;;;;10.23;9.17;;;;;;;15.48;82.00;100807.84;5907070;29;20253;-50
2021/08/19 00:58:22;;;;;;;10.03;9.07;;;;;;;15.52;82.28;100791.09;5912754;29;20278;-52
2021/08/19 01:01:42;;;;;;;10.63;9.57;;;;;;;15.52;81.74;100793.72;5914034;29;20558;-51
2021/08/19 01:05:08;;;;;;;10.50;9.63;;;;;;;15.70;81.43;100807.19;5917732;29;20261;-51
2021/08/19 01:08:29;;;;;;;11.13;9.97;;;;;;;15.69;80.81;100805.50;5916931;29;20317;-53
2021/08/19 01:11:50;;;;;;;14.03;10.87;;;;;;;15.63;80.73;100819.66;5913305;29;20241;-52
2021/08/19 01:15:12;;;;;;;10.33;9.30;;;;;;;15.64;80.90;100823.16;5913066;29;20513;-52
2021/08/19 01:18:41;;;;;;;12.17;8.37;;;;;;;15.58;80.99;100825.94;5914666;29;20599;-51
2021/08/19 01:22:03;;;;;;;10.80;8.73;;;;;;;15.58;80.29;100826.81;5910380;29;20233;-53
2021/08/19 01:25:25;;;;;;;9.40;8.60;;;;;;;15.49;80.51;100825.31;5913327;29;20569;-51
2021/08/19 01:28:48;;;;;;;12.63;9.60;;;;;;;15.86;78.59;100831.28;5906678;29;20884;-51
2021/08/19 01:32:10;;;;;;;8.93;7.93;;;;;;;16.05;77.78;100823.66;5910658;29;20233;-51
2021/08/19 01:35:31;;;;;;;9.60;8.90;;;;;;;15.82;77.57;100827.88;5914111;29;20566;-51
2021/08/19 01:38:53;;;;;;;9.97;9.13;;;;;;;15.80;78.06;100832.31;5914160;29;20242;-56
2021/08/19 01:42:14;;;;;;;9.57;8.33;;;;;;;15.78;78.04;100843.75;5906195;29;20790;-54
2021/08/19 01:45:36;;;;;;;9.07;8.17;;;;;;;15.61;77.85;100839.84;5913669;29;20527;-51
2021/08/19 01:48:57;;;;;;;9.53;8.50;;;;;;;16.00;76.58;100822.97;5915146;29;20241;-52
2021/08/19 01:52:18;;;;;;;8.27;7.53;;;;;;;16.07;76.01;100832.34;5914079;29;20241;-54
2021/08/19 01:55:40;;;;;;;9.07;8.17;;;;;;;16.00;75.79;100817.72;5916074;29;20245;-52
2021/08/19 01:59:01;;;;;;;8.00;7.30;;;;;;;15.90;76.54;100832.91;5914126;29;20230;-53
2021/08/19 02:02:23;;;;;;;8.47;7.73;;;;;;;16.12;75.56;100820.78;5912973;29;20609;-52
2021/08/19 02:05:48;;;;;;;8.23;7.43;;;;;;;15.77;75.91;100827.16;5912137;29;20242;-52
2021/08/19 02:09:09;;;;;;;8.70;7.97;;;;;;;15.65;77.14;100838.00;5914611;29;20242;-53
2021/08/19 02:12:30;;;;;;;8.77;7.20;;;;;;;15.90;76.58;100838.16;5912919;29;20254;-50
2021/08/19 02:15:51;;;;;;;9.90;8.23;;;;;;;15.85;76.66;100829.53;5915097;29;20329;-54
2021/08/19 02:19:13;;;;;;;10.77;8.60;;;;;;;15.93;75.98;100828.38;5914812;29;20245;-52
2021/08/19 02:22:34;;;;;;;10.20;9.30;;;;;;;15.79;77.23;100833.22;5906184;29;20289;-51
2021/08/19 02:25:55;;;;;;;9.77;8.97;;;;;;;15.87;76.96;100831.22;5908406;29;20246;-53
2021/08/19 02:29:16;;;;;;;9.83;9.03;;;;;;;15.70;78.05;100841.31;5910567;29;20242;-52
2021/08/19 02:32:37;;;;;;;10.23;9.27;;;;;;;15.67;78.19;100836.19;5912664;29;20249;-52
2021/08/19 02:35:59;;;;;;;11.23;10.10;;;;;;;15.67;78.76;100846.69;5913123;29;20337;-50
2021/08/19 02:39:20;;;;;;;10.67;9.87;;;;;;;15.87;77.83;100849.59;5904593;29;20291;-53
2021/08/19 02:42:41;;;;;;;11.10;9.97;;;;;;;15.81;78.47;100848.94;5912352;29;20249;-50
2021/08/19 02:46:02;;;;;;;12.10;10.93;;;;;;;15.46;81.17;100858.66;5912370;29;20234;-48
2021/08/19 02:49:23;;;;;;;11.77;10.67;;;;;;;15.69;80.63;100850.13;5913850;29;20234;-52
2021/08/19 02:52:46;;;;;;;14.50;13.10;;;;;;;15.31;83.26;100854.72;5912988;29;20261;-51
2021/08/19 02:56:07;;;;;;;13.03;11.83;;;;;;;15.05;84.07;100843.19;5913078;29;20233;-50
2021/08/19 02:59:28;;;;;;;12.67;11.63;;;;;;;15.26;83.57;100856.63;5914702;29;20246;-52
2021/08/19 03:02:49;;;;;;;12.70;11.50;;;;;;;15.25;83.60;100850.50;5911294;29;20522;-54
2021/08/19 03:06:10;;;;;;;12.60;11.53;;;;;;;15.24;83.80;100847.94;5911980;29;20282;-50
2021/08/19 03:09:32;;;;;;;11.87;10.77;;;;;;;15.25;82.93;100847.00;5911863;29;20246;-51
2021/08/19 03:12:53;;;;;;;10.77;9.87;;;;;;;15.28;82.73;100855.66;5911554;29;20243;-51
2021/08/19 03:16:14;;;;;;;13.07;11.97;;;;;;;15.22;83.68;100865.44;5911112;29;20246;-55
2021/08/19 03:19:36;;;;;;;11.17;10.17;;;;;;;15.35;82.95;100858.97;5907408;29;20257;-53
2021/08/19 03:22:57;;;;;;;11.03;9.93;;;;;;;15.45;82.71;100851.69;5914895;29;20238;-49
2021/08/19 03:26:19;;;;;;;8.97;8.07;;;;;;;15.52;81.20;100843.59;5913981;29;20238;-53
2021/08/19 03:29:40;;;;;;;8.27;7.57;;;;;;;15.36;81.95;100847.56;5912121;29;20238;-49
2021/08/19 03:33:04;;;;;;;6.47;5.87;;;;;;;15.56;80.42;100847.00;5913341;29;20238;-49
2021/08/19 03:36:25;;;;;;;5.80;5.20;;;;;;;15.41;80.38;100845.69;5911093;29;20606;-52
2021/08/19 03:39:46;;;;;;;6.10;5.60;;;;;;;15.23;80.64;100840.94;5911695;29;20242;-52
2021/08/19 03:43:10;;;;;;;5.37;4.97;;;;;;;15.25;79.62;100833.91;5913736;29;20323;-50
2021/08/19 03:46:32;;;;;;;5.60;5.10;;;;;;;15.65;78.56;100836.22;5914386;29;20241;-50
2021/08/19 03:49:54;;;;;;;6.50;5.47;;;;;;;15.39;79.76;100836.13;5914708;29;20242;-53
2021/08/19 03:53:15;;;;;;;5.63;5.13;;;;;;;15.65;78.82;100840.63;5908271;29;20242;-52
2021/08/19 03:56:39;;;;;;;5.50;4.67;;;;;;;15.33;79.92;100848.53;5914100;29;20246;-53
2021/08/19 04:00:01;;;;;;;4.63;4.10;;;;;;;15.44;79.79;100837.72;5913727;29;20238;-51
2021/08/19 04:03:32;;;;;;;6.83;4.60;;;;;;;15.89;78.33;100841.66;5910917;29;20245;-53
2021/08/19 04:06:53;;;;;;;9.00;5.73;;;;;;;15.52;79.27;100842.75;5914152;29;20246;-49
2021/08/19 04:10:15;;;;;;;4.83;4.43;;;;;;;15.69;78.58;100844.88;5907053;29;20242;-50
2021/08/19 04:13:39;;;;;;;6.60;6.00;;;;;;;15.37;80.12;100849.28;5913224;29;20250;-54
2021/08/19 04:17:01;;;;;;;6.90;6.27;;;;;;;15.27;80.87;100846.06;5913290;29;20230;-52
2021/08/19 04:20:24;;;;;;;8.53;7.17;;;;;;;15.08;81.51;100835.25;5910985;29;20241;-52
2021/08/19 04:23:45;;;;;;;6.80;6.20;;;;;;;15.25;80.89;100831.28;5914046;29;20515;-51
2021/08/19 04:27:06;;;;;;;7.93;7.10;;;;;;;15.63;79.56;100834.56;5913844;29;20584;-50
2021/08/19 04:30:27;;;;;;;7.17;6.57;;;;;;;15.72;78.65;100844.75;5916991;29;20241;-53
2021/08/19 04:33:49;;;;;;;8.30;6.97;;;;;;;15.53;79.14;100845.31;5915858;29;20523;-54
2021/08/19 04:37:10;;;;;;;6.10;5.60;;;;;;;15.91;78.02;100848.59;5914290;29;20245;-52
2021/08/19 04:40:32;;;;;;;6.63;6.10;;;;;;;15.82;78.30;100861.13;5917026;29;20254;-52
2021/08/19 04:43:52;;;;;;;6.53;5.93;;;;;;;15.80;78.68;100862.94;5916952;29;20242;-52
2021/08/19 04:47:13;;;;;;;6.87;6.13;;;;;;;15.86;77.87;100858.38;5912801;29;20249;-54
2021/08/19 04:50:36;;;;;;;7.20;6.67;;;;;;;15.68;78.63;100861.53;5916787;29;20324;-49
2021/08/19 04:53:57;;;;;;;6.40;5.90;;;;;;;15.58;78.84;100858.31;5914316;29;20915;-54
2021/08/19 04:57:18;;;;;;;6.47;5.97;;;;;;;15.66;78.70;100855.47;5914049;29;20572;-50
2021/08/19 05:00:39;;;;;;;5.53;5.07;;;;;;;15.86;78.00;100857.53;5915882;29;20258;-50
2021/08/19 05:04:00;;;;;;;6.67;6.07;;;;;;;15.65;78.57;100865.09;5916648;29;20246;-52
2021/08/19 05:07:22;;;;;;;5.93;5.43;;;;;;;15.64;78.71;100860.75;5917032;29;20585;-50
2021/08/19 05:10:43;;;;;;;7.10;6.43;;;;;;;15.52;80.41;100874.22;5914415;29;20246;-54
2021/08/19 05:14:04;;;;;;;7.70;7.00;;;;;;;15.73;80.22;100872.78;5913522;29;20243;-51
2021/08/19 05:17:25;;;;;;;9.43;8.53;;;;;;;15.87;79.45;100881.09;5916022;29;20624;-53
2021/08/19 05:20:46;;;;;;;9.97;9.07;;;;;;;15.62;80.74;100890.56;5916304;29;20606;-53
2021/08/19 05:24:08;;;;;;;9.17;8.27;;;;;;;15.47;81.90;100890.13;5916130;29;20237;-52
2021/08/19 05:27:29;;;;;;;10.87;9.73;;;;;;;15.48;82.24;100889.19;5906484;29;20246;-50
2021/08/19 05:30:51;;;;;;;9.27;8.47;;;;;;;15.43;82.43;100895.47;5909510;29;20242;-51
2021/08/19 05:37:35;;;;;;;9.23;8.43;;;;;;;16.18;79.50;100900.34;5975476;29;20264;-54
2021/08/19 05:40:57;;;;;;;10.30;8.90;;;;;;;15.90;80.66;100902.03;5983102;29;20553;-53
2021/08/19 05:44:18;;;;;;;10.13;8.60;;;;;;;16.14;79.39;100910.91;5976922;29;20236;-52
2021/08/19 05:47:39;;;;;;;9.80;8.97;;;;;;;16.25;79.39;100907.97;5980785;29;20342;-53
2021/08/19 05:51:00;;;;;;;11.10;9.90;;;;;;;16.20;79.92;100917.75;5972959;29;20247;-51
2021/08/19 05:54:21;;;;;;;10.67;8.83;;;;;;;16.19;80.47;100918.69;5982709;29;20240;-52
2021/08/19 05:57:44;;;;;;;11.40;9.37;;;;;;;16.22;80.15;100915.94;5980316;29;20248;-52
2021/08/19 06:01:04;;;;;;;10.70;9.17;;;;;;;16.29;80.07;100925.38;5978135;29;20330;-50
2021/08/19 06:04:25;;;;;;;9.17;8.27;;;;;;;16.09;80.22;100923.34;5982051;29;20236;-53
2021/08/19 06:07:46;;;;;;;10.70;9.80;;;;;;;16.36;79.55;100922.53;5977908;29;20236;-51
2021/08/19 06:11:07;;;;;;;10.47;9.33;;;;;;;16.38;79.63;100918.09;5978467;29;20239;-53
2021/08/19 06:14:29;;;;;;;9.70;8.70;;;;;;;16.30;80.14;100916.59;5983336;29;20243;-53
2021/08/19 06:17:50;;;;;;;9.97;9.07;;;;;;;16.37;80.53;100919.00;5979204;29;20769;-51
2021/08/19 06:21:11;;;;;;;8.47;7.63;;;;;;;16.62;78.76;100925.19;5981379;29;20232;-51
2021/08/19 06:24:33;;;;;;;10.50;8.83;;;;;;;16.23;81.14;100914.19;5979945;29;20236;-52
2021/08/19 06:27:54;;;;;;;9.63;8.63;;;;;;;16.30;80.38;100927.09;5983174;29;20559;-54
2021/08/19 06:31:16;;;;;;;10.60;8.27;;;;;;;16.15;80.44;100922.31;5976127;29;20571;-52
2021/08/19 06:34:37;;;;;;;10.90;8.90;;;;;;;16.67;78.49;100935.56;5981176;29;20252;-51
2021/08/19 06:37:58;;;;;;;8.40;7.60;;;;;;;16.56;78.70;100925.41;5980659;29;20236;-53
2021/08/19 06:41:19;;;;;;;9.50;7.70;;;;;;;16.38;79.01;100925.97;5978178;29;20232;-51
2021/08/19 06:44:40;;;;;;;8.77;7.87;;;;;;;16.36;78.90;100920.75;5972261;29;20239;-53
2021/08/19 06:48:02;;;;;;;8.33;7.50;;;;;;;16.66;78.10;100929.44;5971704;29;20244;-52
2021/08/19 06:51:23;;;;;;;8.27;7.47;;;;;;;16.40;79.37;100934.66;5980601;29;20287;-53
2021/08/19 06:54:44;;;;;;;9.63;8.73;;;;;;;16.50;78.82;100938.75;5980499;29;20244;-51
2021/08/19 06:58:05;;;;;;;8.73;7.90;;;;;;;16.59;78.17;100937.59;5976879;29;20311;-54
2021/08/19 07:01:26;;;;;;;9.43;8.07;;;;;;;16.60;77.76;100940.16;5972898;29;20235;-55
2021/08/19 07:04:48;;;;;;;9.27;7.87;;;;;;;16.56;78.45;100938.56;5980519;29;20232;-55
2021/08/19 07:08:10;;;;;;;9.03;7.83;;;;;;;16.50;78.24;100949.28;5974659;29;20236;-55
2021/08/19 07:11:31;;;;;;;9.60;8.03;;;;;;;16.54;77.37;100940.38;5978663;29;20243;-54
2021/08/19 07:14:52;;;;;;;7.63;6.93;;;;;;;16.92;75.95;100947.03;5979463;29;20240;-51
2021/08/19 07:18:13;;;;;;;6.80;6.20;;;;;;;16.69;76.58;100955.66;5978441;29;20259;-54
2021/08/19 07:21:36;;;;;;;7.77;6.70;;;;;;;16.62;75.58;100945.38;5981096;29;20598;-54
2021/08/19 07:24:56;;;;;;;7.20;6.13;;;;;;;16.50;75.85;100944.88;5978294;29;20256;-52
2021/08/19 07:28:17;;;;;;;8.23;6.30;;;;;;;16.88;75.08;100941.91;5975527;29;20235;-53
2021/08/19 07:31:39;;;;;;;6.17;5.63;;;;;;;17.03;74.99;100946.66;5981160;29;20263;-54
2021/08/19 07:35:00;;;;;;;6.07;5.47;;;;;;;16.79;76.22;100956.22;5973294;29;20243;-51
2021/08/19 07:38:23;;;;;;;6.28;5.68;;;;;;;16.88;75.97;100947.19;5977161;29;20232;-53
2021/08/19 07:41:44;;;;;;;5.72;3.88;;;;;;;16.40;78.23;100943.44;5980454;29;20244;-49
2021/08/19 07:45:06;;;;;;;5.53;4.73;;;;;;;16.69;77.21;100945.13;5976448;29;20319;-54
2021/08/19 07:48:27;;;;;;;4.90;4.37;;;;;;;16.98;75.67;100945.94;5979680;29;20239;-51
2021/08/19 07:51:48;;;;;;;4.00;3.60;;;;;;;17.26;75.39;100953.78;5973851;29;20244;-52
2021/08/19 07:55:12;;;;;;;5.30;4.80;;;;;;;17.02;75.44;100959.88;5973283;29;20654;-54
2021/08/19 07:58:32;;;;;;;5.68;5.18;;;;;;;17.13;74.42;100965.63;5980935;29;20243;-52
2021/08/19 08:01:53;;;;;;;6.93;5.28;;;;;;;16.87;74.45;100958.63;5977923;29;20255;-50
2021/08/19 08:05:15;;;;;;;5.70;4.97;;;;;;;17.03;74.94;100962.44;5980510;29;20235;-51
2021/08/19 08:08:35;;;;;;;6.72;6.05;;;;;;;17.34;74.14;100977.19;5983918;29;20762;-52
2021/08/19 08:11:59;;;;;;;6.93;5.37;;;;;;;17.29;73.95;100968.59;5984002;29;20562;-51
2021/08/19 08:15:20;;;;;;;6.25;4.78;;;;;;;17.07;73.99;100977.22;5984100;29;20247;-49
2021/08/19 08:18:41;;;;;;;5.30;4.80;;;;;;;17.15;74.23;100981.38;5976810;29;20243;-54
2021/08/19 08:22:02;;;;;;;6.57;5.10;;;;;;;16.85;76.17;100981.50;5981027;29;20248;-50
2021/08/19 08:25:23;;;;;;;7.33;5.50;;;;;;;17.07;76.66;100982.47;5983047;29;20598;-52
2021/08/19 08:28:48;;;;;;;5.40;4.97;;;;;;;17.31;75.49;100979.94;5976531;29;20236;-52
2021/08/19 08:32:10;;;;;;;7.97;5.90;;;;;;;17.40;75.63;100990.16;5983560;29;20689;-52
2021/08/19 08:35:36;;;;;;;5.43;4.80;;;;;;;17.47;75.50;100994.28;5983515;29;20263;-50
2021/08/19 08:38:57;;;;;;;9.30;5.87;;;;;;;17.17;76.25;100995.34;5967589;29;20331;-51
2021/08/19 08:42:19;;;;;;;5.13;4.63;;;;;;;17.26;75.24;100995.03;5983149;29;20514;-47
2021/08/19 08:45:42;;;;;;;4.93;4.43;;;;;;;17.43;74.77;101000.59;5982460;29;20635;-51
2021/08/19 08:49:04;;;;;;;7.00;5.60;;;;;;;17.67;74.23;100995.34;5974487;29;20244;-51
2021/08/19 08:52:25;;;;;;;6.87;6.17;;;;;;;16.74;77.47;100989.69;5983792;29;20240;-50
2021/08/19 08:55:47;;;;;;;5.80;5.30;;;;;;;16.99;77.35;101005.56;5982478;29;20240;-52
2021/08/19 08:59:08;;;;;;;7.93;6.00;;;;;;;17.46;75.92;101004.88;5977598;29;20236;-52
2021/08/19 09:02:30;;;;;;;6.37;5.77;;;;;;;17.38;75.01;101009.53;5980341;29;20264;-53
2021/08/19 09:05:53;;;;;;;7.38;6.65;;;;;;;17.57;75.01;101017.69;5976270;29;20236;-49
2021/08/19 09:09:15;;;;;;;7.63;5.83;;;;;;;17.30;75.52;101021.19;5977068;29;20249;-51
2021/08/19 09:12:39;;;;;;;7.13;5.87;;;;;;;17.03;76.78;101011.59;5982964;29;22619;-54
2021/08/19 09:16:15;;;;;;;8.30;6.10;;;;;;;17.21;75.45;101025.91;5983150;29;20232;-54
2021/08/19 09:19:37;;;;;;;8.33;6.93;;;;;;;17.54;74.80;101025.66;5980735;29;20884;-50
2021/08/19 09:23:00;;;;;;;7.75;6.95;;;;;;;17.17;77.14;101026.91;5978563;29;20236;-54
2021/08/19 09:26:27;;;;;;;6.35;5.75;;;;;;;17.25;77.41;101027.50;5970854;29;20240;-54
2021/08/19 09:29:50;;;;;;;7.03;6.30;;;;;;;17.16;78.29;101038.34;5982910;29;20292;-49
2021/08/19 09:33:11;;;;;;;6.20;5.57;;;;;;;17.36;78.26;101030.66;5977575;29;20769;-49
2021/08/19 09:36:35;;;;;;;7.33;6.63;;;;;;;17.03;78.33;101030.84;5980623;29;20252;-52
2021/08/19 09:39:57;;;;;;;6.60;5.90;;;;;;;17.16;77.90;101017.28;5974188;29;20263;-52
2021/08/19 09:43:36;;;;;;;7.93;5.47;;;;;;;17.57;75.83;101017.69;5981137;29;20235;-52
2021/08/19 09:46:57;;;;;;;6.33;5.73;;;;;;;17.51;75.42;101024.00;5975640;29;20235;-52
2021/08/19 09:50:20;;;;;;;10.23;7.17;;;;;;;17.48;75.68;101024.97;5981293;29;20240;-50
2021/08/19 09:53:47;;;;;;;8.13;7.23;;;;;;;17.71;75.96;101020.66;5980785;29;20240;-53
2021/08/19 09:57:09;;;;;;;8.67;7.00;;;;;;;17.92;76.17;101032.25;5983287;29;20276;-53
2021/08/19 10:00:32;;;;;;;7.63;6.93;;;;;;;18.10;75.33;101028.06;5977059;29;20296;-53
2021/08/19 10:03:53;;;;;;;6.67;6.03;;;;;;;18.36;74.54;101031.50;5982435;29;20236;-52
2021/08/19 10:07:14;;;;;;;6.90;6.30;;;;;;;18.15;74.63;101036.69;5977767;29;20549;-51
2021/08/19 10:10:39;;;;;;;7.53;6.25;;;;;;;18.35;73.93;101033.28;5977396;29;20550;-52
2021/08/19 10:14:00;;;;;;;6.95;6.25;;;;;;;18.10;74.98;101035.97;5982330;29;20508;-53
2021/08/19 10:17:21;;;;;;;7.27;6.53;;;;;;;18.07;75.98;101028.19;5979439;29;20251;-53
2021/08/19 10:20:46;;;;;;;7.93;7.15;;;;;;;18.39;74.54;101032.25;5980408;29;20259;-53
2021/08/19 10:24:09;;;;;;;8.07;6.93;;;;;;;17.94;75.05;101032.19;5973564;29;20252;-50
2021/08/19 10:27:32;;;;;;;7.40;5.50;;;;;;;17.67;75.28;101029.59;5976186;29;20228;-54
2021/08/19 10:30:55;;;;;;;7.00;6.30;;;;;;;17.51;74.87;101030.13;5978700;29;20511;-52
2021/08/19 10:34:18;;;;;;;10.50;5.57;;;;;;;18.33;72.45;101029.00;5972294;29;20989;-51
2021/08/19 10:38:02;;;;;;;7.13;6.47;;;;;;;18.40;70.86;101026.06;5981540;29;20323;-49
2021/08/19 10:41:40;;;;;;;7.97;7.18;;;;;;;18.24;71.55;101025.81;5976557;29;20852;-53
2021/08/19 10:45:37;;;;;;;10.67;7.70;;;;;;;18.19;70.01;101029.53;5975600;29;20240;-51
2021/08/19 10:48:58;;;;;;;8.33;7.23;;;;;;;18.30;69.54;101028.19;5979325;29;20278;-54
2021/08/19 10:52:31;;;;;;;9.80;7.03;;;;;;;18.21;69.17;101028.53;5979750;29;20575;-53
2021/08/19 10:55:55;;;;;;;7.65;6.60;;;;;;;18.30;68.41;101025.56;5966114;29;20236;-53
2021/08/19 10:59:30;;;;;;;8.45;6.78;;;;;;;18.23;69.01;101031.13;5977425;29;20244;-55
2021/08/19 11:02:54;;;;;;;8.98;6.40;;;;;;;18.33;68.67;101029.00;5964458;29;20243;-50
2021/08/19 11:06:17;;;;;;;8.80;6.78;;;;;;;18.69;68.52;101018.81;5980007;29;20263;-55
2021/08/19 11:09:38;;;;;;;8.13;6.90;;;;;;;18.56;68.28;101023.69;5975388;29;20638;-54
2021/08/19 11:13:02;;;;;;;8.30;6.22;;;;;;;19.62;65.52;101021.16;5980717;29;20335;-51
2021/08/19 11:16:23;;;;;;;10.35;7.22;;;;;;;20.31;62.99;101022.47;5980761;29;20314;-49
2021/08/19 11:19:45;;;;;;;9.50;6.32;;;;;;;20.99;60.13;101014.84;5975006;29;20240;-52
2021/08/19 11:23:08;;;;;;;11.50;6.32;;;;;;;21.18;59.85;101014.78;5977800;29;20259;-54
2021/08/19 11:26:28;;;;;;;6.35;5.75;;;;;;;22.01;57.12;101021.13;5974324;29;20778;-54
2021/08/19 11:29:49;;;;;;;9.88;6.03;;;;;;;20.74;59.91;101020.47;5969088;29;20239;-49
2021/08/19 11:33:12;;;;;;;9.95;6.70;;;;;;;20.92;59.20;101014.31;5975660;29;20351;-55
2021/08/19 11:36:36;;;;;;;10.65;7.63;;;;;;;21.45;58.62;101017.00;5975345;29;20348;-53
2021/08/19 11:40:00;;;;;;;7.75;5.90;;;;;;;20.22;60.62;101019.34;5980980;29;20316;-52
2021/08/19 11:43:23;;;;;;;8.52;7.57;;;;;;;21.27;57.82;101024.94;5979384;29;20252;-50
2021/08/19 11:46:46;;;;;;;6.05;5.18;;;;;;;21.14;58.65;101013.22;5978678;29;20243;-53
2021/08/19 11:50:07;;;;;;;7.25;6.55;;;;;;;20.67;60.33;101019.94;5974029;29;20322;-49
2021/08/19 11:53:30;;;;;;;8.70;6.70;;;;;;;20.22;61.73;101035.22;5981532;29;20239;-54
2021/08/19 11:56:51;;;;;;;12.05;7.53;;;;;;;20.06;61.67;101029.78;5980407;29;20330;-50
2021/08/19 12:00:15;;;;;;;9.88;6.38;;;;;;;19.18;64.33;101031.81;5975237;29;20236;-54
2021/08/19 12:03:38;;;;;;;8.57;5.88;;;;;;;19.19;64.32;101036.16;5980658;29;20235;-54
2021/08/19 12:07:02;;;;;;;8.90;7.38;;;;;;;19.37;64.24;101034.53;5978981;29;20634;-50
2021/08/19 12:10:25;;;;;;;9.40;6.07;;;;;;;18.70;66.36;101028.41;5972715;29;20634;-53
2021/08/19 12:13:47;;;;;;;6.88;6.18;;;;;;;18.73;65.89;101045.91;5978424;29;20239;-51
2021/08/19 12:17:10;;;;;;;6.68;5.80;;;;;;;18.79;65.84;101035.13;5979623;29;20243;-49
2021/08/19 12:20:33;;;;;;;6.30;5.70;;;;;;;18.87;65.61;101048.88;5969133;29;20255;-53
2021/08/19 12:24:09;;;;;;;11.48;7.43;;;;;;;18.49;66.83;101043.28;5979836;29;20618;-53
2021/08/19 12:27:32;;;;;;;10.75;7.10;;;;;;;18.72;65.92;101044.19;5965172;29;20239;-51
2021/08/19 12:30:58;;;;;;;8.95;6.18;;;;;;;18.88;65.69;101047.97;5975813;29;20240;-50
2021/08/19 12:34:20;;;;;;;7.57;6.75;;;;;;;18.79;66.19;101049.16;5978392;29;20307;-53
2021/08/19 12:37:52;;;;;;;7.55;5.82;;;;;;;18.75;66.30;101044.09;5980593;29;20244;-54
2021/08/19 12:41:18;;;;;;;8.43;6.53;;;;;;;18.67;66.64;101042.59;5966817;29;20239;-52
2021/08/19 12:44:40;;;;;;;8.05;6.13;;;;;;;18.27;68.03;101052.03;5977214;29;20244;-52
2021/08/19 12:48:05;;;;;;;9.02;6.85;;;;;;;18.26;67.57;101055.59;5980667;29;20934;-52
2021/08/19 12:51:27;;;;;;;8.65;6.68;;;;;;;18.30;68.10;101048.44;5975167;29;20235;-53
2021/08/19 12:55:12;;;;;;;9.00;7.97;;;;;;;18.54;66.99;101040.50;5979456;29;20233;-49
2021/08/19 12:58:33;;;;;;;8.88;7.35;;;;;;;18.86;67.47;101049.81;5973539;29;20388;-51
2021/08/19 13:01:56;;;;;;;10.45;8.30;;;;;;;18.62;68.31;101039.28;5942208;29;20225;-51
2021/08/19 13:05:19;;;;;;;10.45;8.98;;;;;;;19.31;66.01;101050.63;5972184;29;21038;-50
2021/08/19 13:08:40;;;;;;;9.38;7.03;;;;;;;18.84;67.99;101039.34;5979317;29;20239;-54
2021/08/19 13:12:01;;;;;;;9.25;6.75;;;;;;;19.22;66.53;101047.44;5981542;29;20239;-53
2021/08/19 13:15:23;;;;;;;7.80;6.47;;;;;;;20.60;61.58;101037.03;5979781;29;20285;-55
2021/08/19 13:18:45;;;;;;;7.93;7.13;;;;;;;20.39;60.90;101044.13;5981108;29;20331;-47
2021/08/19 13:22:06;;;;;;;7.70;6.82;;;;;;;18.94;65.17;101050.38;5977710;29;20554;-51
2021/08/19 13:25:27;;;;;;;8.63;6.78;;;;;;;20.64;61.28;101044.72;5976320;29;20255;-53
2021/08/19 13:28:48;;;;;;;8.27;6.75;;;;;;;21.42;59.11;101040.03;5981801;29;21015;-52
2021/08/19 13:32:09;;;;;;;8.38;6.40;;;;;;;21.57;57.89;101040.22;5964815;29;20267;-53
2021/08/19 13:35:32;;;;;;;7.40;6.70;;;;;;;20.75;60.50;101032.78;5980363;29;20235;-55
2021/08/19 13:38:53;;;;;;;13.25;9.45;;;;;;;20.29;62.63;101034.91;5978704;29;20232;-53
2021/08/19 13:42:14;;;;;;;8.52;7.55;;;;;;;19.97;63.34;101045.19;5977552;29;20606;-50
2021/08/19 13:45:35;;;;;;;7.03;6.43;;;;;;;19.81;64.37;101040.59;5972446;29;22387;-51
2021/08/19 13:48:57;;;;;;;8.27;7.30;;;;;;;20.38;62.26;101029.22;5980875;29;20240;-48
2021/08/19 13:52:20;;;;;;;8.70;7.90;;;;;;;19.63;65.37;101033.41;5971978;29;20228;-54
2021/08/19 13:55:41;;;;;;;10.48;8.68;;;;;;;20.07;64.41;101027.97;5980754;29;20231;-55
2021/08/19 13:59:02;;;;;;;8.82;7.93;;;;;;;19.71;65.74;101033.94;5973636;29;20236;-50
2021/08/19 14:02:23;;;;;;;9.35;8.32;;;;;;;19.72;66.45;101048.06;5968992;29;20240;-55
2021/08/19 14:05:44;;;;;;;9.63;8.45;;;;;;;19.51;67.33;101041.88;5980999;29;20255;-53
2021/08/19 14:09:07;;;;;;;9.27;8.40;;;;;;;20.04;65.62;101057.19;5969233;29;20349;-48
2021/08/19 14:12:27;;;;;;;9.18;7.95;;;;;;;19.59;67.47;101050.31;5977351;29;20542;-53
2021/08/19 14:15:49;;;;;;;8.50;7.20;;;;;;;19.90;66.13;101049.88;5980737;29;20240;-53
2021/08/19 14:19:10;;;;;;;9.48;8.52;;;;;;;19.63;66.37;101047.47;5978335;29;20495;-54
2021/08/19 14:22:33;;;;;;;8.95;8.05;;;;;;;19.63;66.55;101047.47;5977727;29;20701;-55
2021/08/19 14:25:55;;;;;;;10.82;9.43;;;;;;;19.06;69.10;101052.50;5972052;29;20228;-53
2021/08/19 14:29:16;;;;;;;9.10;8.20;;;;;;;19.23;69.04;101048.31;5981135;29;20251;-54
2021/08/19 14:32:37;;;;;;;8.95;8.15;;;;;;;19.31;68.31;101043.59;5976012;29;20235;-52
2021/08/19 14:35:58;;;;;;;11.07;9.98;;;;;;;19.44;67.98;101039.50;5977835;29;20232;-54
2021/08/19 14:39:19;;;;;;;9.88;8.55;;;;;;;19.44;68.26;101042.16;5971897;29;20663;-55
2021/08/19 14:42:42;;;;;;;9.90;8.93;;;;;;;19.19;68.82;101052.00;5978585;29;20236;-54
2021/08/19 14:46:03;;;;;;;8.75;7.95;;;;;;;19.40;68.35;101051.09;5975221;29;20239;-55
2021/08/19 14:49:24;;;;;;;10.30;8.13;;;;;;;19.21;68.93;101050.16;5970304;29;20232;-52
2021/08/19 14:52:45;;;;;;;8.48;7.63;;;;;;;19.48;67.64;101054.28;5991768;29;20263;-55
2021/08/19 14:56:07;;;;;;;7.57;6.88;;;;;;;19.30;68.97;101059.47;5980200;29;20244;-55
2021/08/19 14:59:32;;;;;;;8.57;7.50;;;;;;;19.36;68.77;101053.94;5984165;29;20251;-54
2021/08/19 15:02:53;;;;;;;7.85;7.13;;;;;;;19.44;67.32;101058.00;5968274;29;20254;-50
2021/08/19 15:06:14;;;;;;;9.65;8.75;;;;;;;19.70;66.97;101049.84;5973421;29;20228;-53
2021/08/19 15:09:37;;;;;;;7.78;7.03;;;;;;;19.80;66.66;101049.41;5977442;29;20619;-54
2021/08/19 15:12:58;;;;;;;8.27;6.95;;;;;;;19.72;66.44;101051.56;5974444;29;20231;-52
2021/08/19 15:16:20;;;;;;;8.10;7.07;;;;;;;19.17;67.53;101046.78;5975911;29;20587;-55
2021/08/19 15:19:41;;;;;;;7.30;6.65;;;;;;;19.52;66.47;101054.13;5972728;29;20235;-56
2021/08/19 15:23:02;;;;;;;8.20;6.22;;;;;;;19.43;66.26;101053.63;5977642;29;20244;-52
2021/08/19 15:26:24;;;;;;;8.55;7.28;;;;;;;19.36;66.83;101053.94;5974898;29;20259;-54
2021/08/19 15:29:45;;;;;;;19.10;17.30;;;;;;;19.93;65.04;101052.38;5978969;29;20247;-52
2021/08/19 15:33:07;;;;;;;7.95;7.25;;;;;;;19.63;64.72;101052.75;5971793;29;20243;-52
2021/08/19 15:36:28;;;;;;;8.48;7.68;;;;;;;19.40;64.73;101051.09;5979244;29;20236;-51
2021/08/19 15:39:50;;;;;;;7.50;6.70;;;;;;;19.03;64.62;101043.84;5975512;29;20322;-52